WetterOnline ( https://www.wetteronline.at )

Wetter aktuell Marburg

Aktuelles Wetter: Neu-Ulrichstein (350m)

6-stündlich | Neueste Meldungen
Ortszeit Temperatur Wetter
Mo, 05.12. 13:00 1.3° C Nebel
Mo, 05.12. 7:00 0.2° C Nebel
Mo, 05.12. 1:00 0.5° C leichter Regen
So, 04.12. 19:00 0.4° C bedeckt
So, 04.12. 13:00 0.0° C bedeckt
So, 04.12. 7:00 -1.2° C bedeckt
So, 04.12. 1:00 -1.5° C bedeckt
Sa, 03.12. 19:00 -1.6° C bedeckt
Ortszeit Temperatur Wetter
Mo, 05.12. 14:00 1.6° C bedeckt
Mo, 05.12. 13:50 1.6° C bedeckt
Mo, 05.12. 13:40 1.6° C Dunst
Mo, 05.12. 13:30 1.5° C bedeckt
Mo, 05.12. 13:20 1.5° C Dunst
Mo, 05.12. 13:10 1.5° C Dunst
Mo, 05.12. 13:00 1.3° C Nebel
Mo, 05.12. 12:30 1.1° C Nebel
Mo, 05.12. 12:00 0.9° C Nebel
Mo, 05.12. 11:30 0.8° C bedeckt
Mo, 05.12. 11:00 0.9° C bedeckt
Ortszeit Relative Feuchte Sichtweite
Mo, 05.12. 13:00 99% 7 km
Mo, 05.12. 7:00 100% 0.3 km
Mo, 05.12. 1:00 99% 2.7 km
So, 04.12. 19:00 96% 10 km
So, 04.12. 13:00 93% 14 km
So, 04.12. 7:00 96% 6 km
So, 04.12. 1:00 91% 14 km
Sa, 03.12. 19:00 94% 10 km
Ortszeit Relative Feuchte Sichtweite
Mo, 05.12. 14:00 96% 8 km
Mo, 05.12. 13:50 96% -
Mo, 05.12. 13:40 98% -
Mo, 05.12. 13:30 99% 6 km
Mo, 05.12. 13:20 99% -
Mo, 05.12. 13:10 99% -
Mo, 05.12. 13:00 99% 7 km
Mo, 05.12. 12:30 100% 2.6 km
Mo, 05.12. 12:00 100% 0.9 km
Mo, 05.12. 11:30 100% 1.2 km
Mo, 05.12. 11:00 99% 5.0 km
Ortszeit Niederschlagsmenge Niederschlagsart
Mo, 05.12. 13:00 0.0 l/m2 in 6 Std. -
Mo, 05.12. 7:00 1 l/m2 in 12 Std. Schnee, Regen
Mo, 05.12. 1:00 0.1 l/m2 in 6 Std. Regen
So, 04.12. 19:00 0.0 l/m2 in 12 Std. -
So, 04.12. 13:00 0.0 l/m2 in 6 Std. -
So, 04.12. 7:00 0.0 l/m2 in 12 Std. -
So, 04.12. 1:00 0.0 l/m2 in 6 Std. -
Sa, 03.12. 19:00 0.0 l/m2 in 12 Std. -
Ortszeit Niederschlagsmenge Niederschlagsart
Mo, 05.12. 14:00 0.0 l/m2 in 1 Std. -
Mo, 05.12. 13:50 keine Meldung -
Mo, 05.12. 13:40 keine Meldung -
Mo, 05.12. 13:30 0.0 l/m2 in 30 Min -
Mo, 05.12. 13:20 keine Meldung -
Mo, 05.12. 13:10 keine Meldung -
Mo, 05.12. 13:00 0.0 l/m2 in 1 Std. -
Mo, 05.12. 12:30 0.0 l/m2 in 30 Min -
Mo, 05.12. 12:00 0.0 l/m2 in 1 Std. -
Mo, 05.12. 11:30 0.0 l/m2 in 30 Min -
Mo, 05.12. 11:00 0.0 l/m2 in 1 Std. -
Ortszeit Stärke Spitze Richtung
km/h Bft. km/h Grad Sektor
Mo, 05.12. 13:00 14 3 22 210° SW
Mo, 05.12. 7:00 4 1 14 120° SO
Mo, 05.12. 1:00 9 2 26 40° NO
So, 04.12. 19:00 11 2 25 30° NO
So, 04.12. 13:00 18 3 25 40° NO
So, 04.12. 7:00 14 3 29 50° NO
So, 04.12. 1:00 14 3 22 40° NO
Sa, 03.12. 19:00 17 3 24 60° NO
Ortszeit Stärke Spitze Richtung
km/h Bft. km/h Grad Sektor
Mo, 05.12. 14:00 13 3 20 210° SW
Mo, 05.12. 13:50 13 3 - 210° SW
Mo, 05.12. 13:40 11 2 - 220° SW
Mo, 05.12. 13:30 13 3 20 210° SW
Mo, 05.12. 13:20 13 3 - 210° SW
Mo, 05.12. 13:10 13 3 - 220° SW
Mo, 05.12. 13:00 14 3 22 210° SW
Mo, 05.12. 12:30 11 2 18 210° SW
Mo, 05.12. 12:00 13 3 20 200° S
Mo, 05.12. 11:30 13 3 20 200° S
Mo, 05.12. 11:00 9 2 15 200° S
Ortszeit Untergrenze Bedeckung Gattung
total tief tief mittel hoch
Mo, 05.12. 13:00 60 m 8/8 8/8 - - -
Mo, 05.12. 7:00 <30 m 8/8 0/8 - - -
Mo, 05.12. 1:00 30 m 8/8 8/8 - - -
So, 04.12. 19:00 150 m 8/8 8/8 - - -
So, 04.12. 13:00 150 m 8/8 8/8 - - -
So, 04.12. 7:00 120 m 8/8 8/8 - - -
So, 04.12. 1:00 270 m 8/8 8/8 - - -
Sa, 03.12. 19:00 180 m 8/8 8/8 - - -
Ortszeit Bedeckungsgrad in Achtel und Wolkenuntergrenze
Mo, 05.12. 14:00 8(120m)
Mo, 05.12. 13:50 8(120m)
Mo, 05.12. 13:40 7
Mo, 05.12. 13:30 8(60m)
Mo, 05.12. 13:20 8(60m)
Mo, 05.12. 13:10 8
Mo, 05.12. 13:00 8(60m)
Mo, 05.12. 12:30 7(30m)
Mo, 05.12. 12:00 8(30m)
Mo, 05.12. 11:30 8(60m)
Mo, 05.12. 11:00 8(90m)
Ortszeit Luftdruck NN (hPa) Tendenz (hPa in 3 Std.)
Mo, 05.12. 13:00 1019 + 0,2
Mo, 05.12. 7:00 1018 + 0,6
Mo, 05.12. 1:00 1016 + 0,4
So, 04.12. 19:00 1016 + 0,3
So, 04.12. 13:00 1016 - 0,8
So, 04.12. 7:00 1018 + 0,1
So, 04.12. 1:00 1018 - 0,9
Sa, 03.12. 19:00 1020 - 0,4
Ortszeit Luftdruck NN (hPa) Tendenz (hPa in 3 Std.)
Mo, 05.12. 14:00 1019 0,0
Mo, 05.12. 13:50 1019 keine Meldung
Mo, 05.12. 13:40 1019 keine Meldung
Mo, 05.12. 13:30 1019 - 0,1
Mo, 05.12. 13:20 1019 keine Meldung
Mo, 05.12. 13:10 1019 keine Meldung
Mo, 05.12. 13:00 1019 + 0,2
Mo, 05.12. 12:30 1019 + 0,6
Mo, 05.12. 12:00 1019 + 0,7
Mo, 05.12. 11:30 1019 + 0,9
Mo, 05.12. 11:00 1019 + 1,3
Ortszeit Schneehöhe (cm)
Mo, 05.12. 13:00 0
Mo, 05.12. 7:00 0
Mo, 05.12. 1:00 0
So, 04.12. 19:00 -
So, 04.12. 13:00 1
So, 04.12. 7:00 1
So, 04.12. 1:00 1
Sa, 03.12. 19:00 1
Ortszeit Schneehöhe (cm)
Mo, 05.12. 14:00 0
Mo, 05.12. 13:50 0
Mo, 05.12. 13:40 0
Mo, 05.12. 13:30 0
Mo, 05.12. 13:20 0
Mo, 05.12. 13:10 0
Mo, 05.12. 13:00 0
Mo, 05.12. 12:30 0
Mo, 05.12. 12:00 0
Mo, 05.12. 11:30 0
Mo, 05.12. 11:00 0
Link zu dieser Seite / Seite empfehlen

Das Wetter in ...